createdAt,value
2018-06-03T00:02:24.328Z,94134.42
2018-06-03T00:04:51.915Z,94133.95
2018-06-03T00:07:19.532Z,94135.43
2018-06-03T00:09:47.154Z,94134.13
2018-06-03T00:12:14.732Z,94134.09
2018-06-03T00:14:42.315Z,94134.61
2018-06-03T00:17:09.932Z,94141.02
2018-06-03T00:19:37.507Z,94134.70
2018-06-03T00:22:06.019Z,94128.38
2018-06-03T00:24:33.643Z,94135.12
2018-06-03T00:27:01.385Z,94127.42
2018-06-03T00:29:29.086Z,94126.66
2018-06-03T00:31:56.793Z,94121.17
2018-06-03T00:34:24.487Z,94119.69
2018-06-03T00:36:52.126Z,94123.36
2018-06-03T00:39:19.823Z,94123.36
2018-06-03T00:41:47.507Z,94123.09
2018-06-03T00:44:15.167Z,94118.95
2018-06-03T00:46:42.868Z,94117.92
2018-06-03T00:49:10.577Z,94114.97
2018-06-03T00:51:38.259Z,94110.86
2018-06-03T00:54:05.963Z,94110.26
2018-06-03T00:56:39.227Z,94116.00
2018-06-03T00:59:06.859Z,94107.61
2018-06-03T01:01:34.532Z,94112.33
2018-06-03T01:04:02.219Z,94109.98
2018-06-03T01:06:29.944Z,94108.66
2018-06-03T01:08:57.627Z,94101.66
2018-06-03T01:11:25.405Z,94102.77
2018-06-03T01:13:53.064Z,94102.92
2018-06-03T01:16:20.737Z,94105.56
2018-06-03T01:18:48.481Z,94105.12
2018-06-03T01:21:16.168Z,94096.01
2018-06-03T01:23:43.886Z,94102.47
2018-06-03T01:26:11.588Z,94100.69
2018-06-03T01:28:39.358Z,94098.92
2018-06-03T01:31:07.227Z,94097.45
2018-06-03T01:33:34.934Z,94091.80
2018-06-03T01:36:02.590Z,94094.05
2018-06-03T01:38:30.324Z,94093.48
2018-06-03T01:40:58.018Z,94086.11
2018-06-03T01:43:25.714Z,94091.44
2018-06-03T01:45:53.424Z,94084.97
2018-06-03T01:48:21.107Z,94082.48
2018-06-03T01:50:48.768Z,94086.56
2018-06-03T01:53:16.443Z,94086.07
2018-06-03T01:55:44.162Z,94088.63
2018-06-03T01:58:11.837Z,94076.77
2018-06-03T02:00:39.743Z,94072.80
2018-06-03T02:03:07.440Z,94069.45
2018-06-03T02:05:35.098Z,94066.01
2018-06-03T02:08:02.792Z,94067.75
2018-06-03T02:10:30.475Z,94068.28
2018-06-03T02:12:58.183Z,94065.19
2018-06-03T02:15:25.886Z,94056.08
2018-06-03T02:17:53.601Z,94060.30
2018-06-03T02:20:21.376Z,94057.64
2018-06-03T02:22:49.055Z,94062.16
2018-06-03T02:25:16.833Z,94057.41
2018-06-03T02:27:44.528Z,94051.36
2018-06-03T02:30:12.228Z,94050.72
2018-06-03T02:32:39.947Z,94053.55
2018-06-03T02:35:07.607Z,94055.78
2018-06-03T02:37:35.326Z,94049.73
2018-06-03T02:40:03.091Z,94045.91
2018-06-03T02:42:30.758Z,94049.20
2018-06-03T02:44:58.466Z,94048.41
2018-06-03T02:47:26.172Z,94042.02
2018-06-03T02:49:53.867Z,94042.30
2018-06-03T02:52:21.528Z,94049.98
2018-06-03T02:54:49.263Z,94046.59
2018-06-03T02:57:16.956Z,94047.72
2018-06-03T02:59:44.680Z,94047.77
2018-06-03T03:02:12.335Z,94049.31
2018-06-03T03:04:40.011Z,94046.92
2018-06-03T03:07:07.732Z,94052.45
2018-06-03T03:09:35.392Z,94050.86
2018-06-03T03:12:03.144Z,94058.07
2018-06-03T03:14:30.793Z,94060.09
2018-06-03T03:16:58.476Z,94058.84
2018-06-03T03:19:26.140Z,94055.86
2018-06-03T03:21:53.823Z,94056.37
2018-06-03T03:24:21.492Z,94062.77
2018-06-03T03:26:49.171Z,94058.03
2018-06-03T03:29:16.839Z,94058.00
2018-06-03T03:31:44.517Z,94054.34
2018-06-03T03:34:12.225Z,94057.16
2018-06-03T03:36:39.947Z,94066.02
2018-06-03T03:39:07.602Z,94063.69
2018-06-03T03:41:35.271Z,94068.97
2018-06-03T03:44:02.982Z,94066.77
2018-06-03T03:46:30.663Z,94061.42
2018-06-03T03:48:58.339Z,94064.06
2018-06-03T03:51:26.011Z,94067.89
2018-06-03T03:53:53.692Z,94072.22
2018-06-03T03:56:21.346Z,94072.02
2018-06-03T03:58:49.015Z,94074.15
2018-06-03T04:01:16.702Z,94076.92
2018-06-03T04:03:44.410Z,94081.27
2018-06-03T04:06:12.077Z,94080.11
2018-06-03T04:08:39.845Z,94077.94
2018-06-03T04:11:07.508Z,94074.61
2018-06-03T04:13:35.418Z,94077.57
2018-06-03T04:16:03.091Z,94078.80
2018-06-03T04:18:30.758Z,94085.55
2018-06-03T04:20:58.418Z,94086.87
2018-06-03T04:23:26.083Z,94084.38
2018-06-03T04:25:53.787Z,94080.50
2018-06-03T04:28:21.518Z,94070.58
2018-06-03T04:30:49.235Z,94073.81
2018-06-03T04:33:16.994Z,94070.00
2018-06-03T04:35:44.630Z,94073.43
2018-06-03T04:38:12.307Z,94069.52
2018-06-03T04:40:39.950Z,94070.87
2018-06-03T04:43:07.590Z,94063.66
2018-06-03T04:45:35.256Z,94064.11
2018-06-03T04:48:02.913Z,94067.50
2018-06-03T04:50:30.603Z,94067.78
2018-06-03T04:52:58.355Z,94057.69
2018-06-03T04:55:26.055Z,94062.14
2018-06-03T04:57:53.798Z,94057.56
2018-06-03T05:00:21.472Z,94057.64
2018-06-03T05:02:49.366Z,94063.70
2018-06-03T05:05:17.014Z,94063.87
2018-06-03T05:07:44.707Z,94061.22
2018-06-03T05:10:12.402Z,94058.78
2018-06-03T05:12:40.138Z,94055.98
2018-06-03T05:15:07.802Z,94055.84
2018-06-03T05:17:35.477Z,94062.03
2018-06-03T05:20:03.207Z,94061.77
2018-06-03T05:22:30.862Z,94063.39
2018-06-03T05:24:58.522Z,94063.48
2018-06-03T05:27:26.299Z,94061.48
2018-06-03T05:29:53.960Z,94053.70
2018-06-03T05:32:21.620Z,94052.84
2018-06-03T05:34:49.285Z,94056.08
2018-06-03T05:37:16.975Z,94058.23
2018-06-03T05:39:44.639Z,94058.55
2018-06-03T05:42:12.319Z,94061.47
2018-06-03T05:44:40.011Z,94067.58
2018-06-03T05:47:07.663Z,94069.55
2018-06-03T05:49:35.384Z,94065.42
2018-06-03T05:52:03.136Z,94068.72
2018-06-03T05:54:30.808Z,94065.23
2018-06-03T05:56:58.474Z,94073.79
2018-06-03T05:59:26.186Z,94074.02
2018-06-03T06:01:53.855Z,94078.27
2018-06-03T06:04:21.544Z,94080.42
2018-06-03T06:06:49.263Z,94075.86
2018-06-03T06:09:16.947Z,94084.98
2018-06-03T06:11:44.634Z,94084.27
2018-06-03T06:14:12.307Z,94084.09
2018-06-03T06:16:39.954Z,94081.08
2018-06-03T06:19:07.647Z,94079.84
2018-06-03T06:21:35.342Z,94083.66
2018-06-03T06:24:03.045Z,94086.27
2018-06-03T06:26:30.820Z,94081.10
2018-06-03T06:28:58.509Z,94088.89
2018-06-03T06:31:26.279Z,94081.50
2018-06-03T06:33:54.255Z,94081.59
2018-06-03T06:36:21.950Z,94077.31
2018-06-03T06:38:49.699Z,94083.96
2018-06-03T06:41:17.761Z,94070.75
2018-06-03T06:43:45.785Z,94081.28
2018-06-03T06:46:13.526Z,94081.02
2018-06-03T06:48:41.215Z,94080.27
2018-06-03T06:51:08.879Z,94077.59
2018-06-03T06:53:36.878Z,94084.53
2018-06-03T06:56:04.591Z,94080.77
2018-06-03T06:58:32.260Z,94081.54
2018-06-03T07:00:59.919Z,94079.58
2018-06-03T07:03:27.621Z,94078.87
2018-06-03T07:05:55.598Z,94077.41
2018-06-03T07:08:23.275Z,94077.37
2018-06-03T07:10:50.922Z,94078.80
2018-06-03T07:13:18.874Z,94083.52
2018-06-03T07:15:46.571Z,94081.30
2018-06-03T07:18:14.232Z,94078.19
2018-06-03T07:20:41.943Z,94084.45
2018-06-03T07:23:09.627Z,94068.81
2018-06-03T07:25:37.319Z,94068.14
2018-06-03T07:28:05.029Z,94065.93
2018-06-03T07:30:32.701Z,94064.77
2018-06-03T07:33:00.614Z,94067.31
2018-06-03T07:35:28.267Z,94063.45
2018-06-03T07:37:55.984Z,94061.34
2018-06-03T07:40:23.684Z,94059.17
2018-06-03T07:42:51.656Z,94054.28
2018-06-03T07:45:19.355Z,94055.37
2018-06-03T07:47:47.080Z,94055.19
2018-06-03T07:50:14.821Z,94058.03
2018-06-03T07:52:42.576Z,94060.41
2018-06-03T07:55:10.294Z,94057.13
2018-06-03T07:57:38.016Z,94063.73
2018-06-03T08:00:05.755Z,94059.58
2018-06-03T08:02:33.515Z,94057.83
2018-06-03T08:05:01.183Z,94058.36
2018-06-03T08:07:29.130Z,94056.28
2018-06-03T08:09:56.815Z,94057.89
2018-06-03T08:12:24.519Z,94051.64
2018-06-03T08:14:52.252Z,94057.33
2018-06-03T08:17:20.028Z,94060.43
2018-06-03T08:19:47.727Z,94056.69
2018-06-03T08:22:15.459Z,94052.62
2018-06-03T08:24:43.142Z,94056.83
2018-06-03T08:27:10.867Z,94048.02
2018-06-03T08:29:38.554Z,94053.90
2018-06-03T08:32:06.259Z,94048.66
2018-06-03T08:34:33.995Z,94050.98
2018-06-03T08:37:01.690Z,94043.02
2018-06-03T08:39:29.406Z,94038.88
2018-06-03T08:41:57.070Z,94042.55
2018-06-03T08:44:24.795Z,94052.55
2018-06-03T08:46:52.633Z,94048.36
2018-06-03T08:49:20.408Z,94042.64
2018-06-03T08:51:48.137Z,94049.52
2018-06-03T08:54:15.892Z,94042.11
2018-06-03T08:56:43.614Z,94043.89
2018-06-03T08:59:11.319Z,94040.62
2018-06-03T09:01:39.000Z,94046.50
2018-06-03T09:04:06.699Z,94036.00
2018-06-03T09:06:34.416Z,94044.11
2018-06-03T09:09:02.204Z,94034.90
2018-06-03T09:11:29.937Z,94028.68
2018-06-03T09:13:57.724Z,94028.40
2018-06-03T09:16:25.463Z,94034.27
2018-06-03T09:18:53.246Z,94039.14
2018-06-03T09:21:20.951Z,94039.09
2018-06-03T09:23:48.648Z,94045.41
2018-06-03T09:26:16.365Z,94035.24
2018-06-03T09:28:44.064Z,94037.33
2018-06-03T09:31:11.796Z,94031.71
2018-06-03T09:33:39.532Z,94034.36
2018-06-03T09:36:07.266Z,94025.69
2018-06-03T09:38:34.975Z,94026.80
2018-06-03T09:41:02.661Z,94033.75
2018-06-03T09:43:30.396Z,94028.00
2018-06-03T09:45:58.112Z,94031.75
2018-06-03T09:48:25.831Z,94029.11
2018-06-03T09:50:53.588Z,94032.94
2018-06-03T09:53:21.361Z,94033.44
2018-06-03T09:55:49.044Z,94028.49
2018-06-03T09:58:16.779Z,94028.58
2018-06-03T10:00:44.489Z,94028.95
2018-06-03T10:03:12.199Z,94022.33
2018-06-03T10:05:40.103Z,94019.36
2018-06-03T10:08:07.773Z,94016.69
2018-06-03T10:10:35.491Z,94011.80
2018-06-03T10:13:03.202Z,94014.70
2018-06-03T10:15:30.929Z,94014.12
2018-06-03T10:17:58.658Z,94014.33
2018-06-03T10:20:26.402Z,94021.11
2018-06-03T10:22:54.104Z,94012.09
2018-06-03T10:25:21.797Z,94018.64
2018-06-03T10:27:49.497Z,94014.56
2018-06-03T10:30:17.260Z,94017.50
2018-06-03T10:32:45.067Z,94011.45
2018-06-03T10:35:13.752Z,94013.13
2018-06-03T10:37:41.485Z,94005.91
2018-06-03T10:40:09.195Z,94012.95
2018-06-03T10:42:36.936Z,94019.30
2018-06-03T10:45:04.743Z,94012.64
2018-06-03T10:47:32.464Z,94017.56
2018-06-03T10:50:00.151Z,94010.09
2018-06-03T10:52:27.867Z,94002.36
2018-06-03T10:54:55.594Z,93996.80
2018-06-03T10:57:23.263Z,94000.97
2018-06-03T10:59:51.044Z,93999.08
2018-06-03T11:02:18.859Z,93992.11
2018-06-03T11:04:46.541Z,93988.02
2018-06-03T11:07:14.234Z,93990.81
2018-06-03T11:09:41.919Z,93987.17
2018-06-03T11:12:09.694Z,93984.84
2018-06-03T11:14:37.346Z,93978.47
2018-06-03T11:17:05.084Z,93987.23
2018-06-03T11:19:32.801Z,93978.94
2018-06-03T11:22:00.604Z,93970.72
2018-06-03T11:24:28.303Z,93977.56
2018-06-03T11:26:56.003Z,93967.97
2018-06-03T11:29:23.772Z,93973.08
2018-06-03T11:31:51.524Z,93966.63
2018-06-03T11:34:19.191Z,93963.16
2018-06-03T11:36:46.968Z,93954.20
2018-06-03T11:39:14.711Z,93951.11
2018-06-03T11:41:42.387Z,93953.30
2018-06-03T11:44:10.158Z,93940.56
2018-06-03T11:46:37.839Z,93951.75
2018-06-03T11:49:05.536Z,93939.20
2018-06-03T11:51:33.238Z,93942.64
2018-06-03T11:54:00.929Z,93941.67
2018-06-03T11:56:34.288Z,93935.89
2018-06-03T11:59:07.576Z,93938.88
2018-06-03T12:01:35.299Z,93926.66
2018-06-03T12:04:03.003Z,93931.26
2018-06-03T12:06:30.719Z,93933.55
2018-06-03T12:08:58.446Z,93934.73
2018-06-03T12:11:26.150Z,93929.62
2018-06-03T12:13:53.847Z,93932.13
2018-06-03T12:16:21.679Z,93932.01
2018-06-03T12:18:49.380Z,93937.11
2018-06-03T12:21:17.092Z,93940.05
2018-06-03T12:23:44.788Z,93936.66
2018-06-03T12:26:12.470Z,93937.45
2018-06-03T12:28:40.200Z,93928.52
2018-06-03T12:31:07.854Z,93934.50
2018-06-03T12:33:35.539Z,93922.53
2018-06-03T12:36:03.304Z,93913.77
2018-06-03T12:38:30.915Z,93915.62
2018-06-03T12:40:58.631Z,93906.43
2018-06-03T12:43:26.397Z,93912.50
2018-06-03T12:45:54.180Z,93903.66
2018-06-03T12:48:21.888Z,93897.83
2018-06-03T12:50:49.599Z,93897.95
2018-06-03T12:53:17.394Z,93891.77
2018-06-03T12:55:45.114Z,93892.75
2018-06-03T12:58:12.783Z,93892.05
2018-06-03T13:00:40.499Z,93883.48
2018-06-03T13:03:08.227Z,93879.22
2018-06-03T13:05:35.990Z,93890.09
2018-06-03T13:08:03.767Z,93886.14
2018-06-03T13:10:31.493Z,93886.34
2018-06-03T13:13:02.727Z,93885.56
2018-06-03T13:15:30.453Z,93880.00
2018-06-03T13:17:58.139Z,93891.95
2018-06-03T13:20:25.982Z,93886.02
2018-06-03T13:22:53.683Z,93874.79
2018-06-03T13:25:21.409Z,93890.78
2018-06-03T13:27:49.119Z,93882.41
2018-06-03T13:30:16.824Z,93875.88
2018-06-03T13:32:44.543Z,93883.02
2018-06-03T13:35:12.260Z,93878.55
2018-06-03T13:37:40.734Z,93874.70
2018-06-03T13:40:08.457Z,93866.28
2018-06-03T13:42:36.187Z,93861.41
2018-06-03T13:45:03.907Z,93860.98
2018-06-03T13:47:31.610Z,93863.24
2018-06-03T13:49:59.294Z,93853.88
2018-06-03T13:52:26.979Z,93851.19
2018-06-03T13:54:54.732Z,93843.78
2018-06-03T13:57:22.488Z,93843.49
2018-06-03T13:59:50.226Z,93839.72
2018-06-03T14:02:17.911Z,93838.67
2018-06-03T14:04:45.583Z,93829.58
2018-06-03T14:07:13.275Z,93829.49
2018-06-03T14:09:40.965Z,93830.19
2018-06-03T14:12:08.696Z,93825.35
2018-06-03T14:14:36.419Z,93829.59
2018-06-03T14:17:04.151Z,93824.35
2018-06-03T14:19:31.925Z,93825.31
2018-06-03T14:21:59.508Z,93827.98
2018-06-03T14:24:27.148Z,93829.92
2018-06-03T14:26:54.811Z,93822.18
2018-06-03T14:29:22.492Z,93817.72
2018-06-03T14:31:50.234Z,93817.60
2018-06-03T14:34:17.895Z,93807.72
2018-06-03T14:36:45.610Z,93807.75
2018-06-03T14:39:13.290Z,93801.77
2018-06-03T14:41:40.952Z,93805.39
2018-06-03T14:44:08.652Z,93801.77
2018-06-03T14:46:36.323Z,93796.64
2018-06-03T14:49:04.035Z,93792.55
2018-06-03T14:51:31.662Z,93782.48
2018-06-03T14:53:59.407Z,93786.85
2018-06-03T14:56:27.092Z,93784.66
2018-06-03T14:58:54.754Z,93780.95
2018-06-03T15:01:22.449Z,93772.70
2018-06-03T15:03:50.169Z,93774.33
2018-06-03T15:06:17.912Z,93777.19
2018-06-03T15:08:45.581Z,93769.38
2018-06-03T15:11:13.304Z,93764.75
2018-06-03T15:13:40.994Z,93759.78
2018-06-03T15:16:08.642Z,93757.54
2018-06-03T15:18:36.339Z,93762.51
2018-06-03T15:21:04.081Z,93752.76
2018-06-03T15:23:31.873Z,93749.34
2018-06-03T15:25:59.568Z,93745.95
2018-06-03T15:28:27.249Z,93745.37
2018-06-03T15:30:55.004Z,93750.33
2018-06-03T15:33:22.702Z,93752.68
2018-06-03T15:35:50.455Z,93751.16
2018-06-03T15:38:18.145Z,93741.56
2018-06-03T15:40:45.921Z,93743.39
2018-06-03T15:43:13.626Z,93744.89
2018-06-03T15:45:41.289Z,93749.42
2018-06-03T15:48:08.942Z,93744.63
2018-06-03T15:50:36.651Z,93742.77
2018-06-03T15:53:04.291Z,93748.08
2018-06-03T15:55:31.997Z,93736.98
2018-06-03T15:57:59.688Z,93735.77
2018-06-03T16:00:27.354Z,93738.45
2018-06-03T16:02:55.119Z,93731.40
2018-06-03T16:05:22.802Z,93718.52
2018-06-03T16:07:50.509Z,93720.80
2018-06-03T16:10:18.190Z,93711.88
2018-06-03T16:12:45.891Z,93712.28
2018-06-03T16:15:13.554Z,93715.89
2018-06-03T16:17:41.188Z,93709.05
2018-06-03T16:20:09.071Z,93721.16
2018-06-03T16:22:36.825Z,93715.11
2018-06-03T16:25:04.478Z,93718.47
2018-06-03T16:27:32.119Z,93723.75
2018-06-03T16:29:59.822Z,93714.09
2018-06-03T16:32:27.452Z,93713.34
2018-06-03T16:34:55.163Z,93707.64
2018-06-03T16:37:22.890Z,93704.03
2018-06-03T16:39:50.663Z,93704.68
2018-06-03T16:42:18.523Z,93706.84
2018-06-03T16:44:46.264Z,93704.41
2018-06-03T16:47:13.904Z,93697.98
2018-06-03T16:49:41.637Z,93697.02
2018-06-03T16:52:09.297Z,93695.70
2018-06-03T16:54:37.079Z,93699.92
2018-06-03T16:57:04.755Z,93703.50
2018-06-03T16:59:32.643Z,93702.41
2018-06-03T17:02:00.431Z,93696.28
2018-06-03T17:04:28.135Z,93704.49
2018-06-03T17:06:55.974Z,93700.86
2018-06-03T17:09:23.646Z,93707.49
2018-06-03T17:11:51.389Z,93703.59
2018-06-03T17:14:19.076Z,93695.16
2018-06-03T17:16:46.743Z,93686.41
2018-06-03T17:19:14.458Z,93684.53
2018-06-03T17:21:42.150Z,93690.91
2018-06-03T17:24:09.832Z,93692.44
2018-06-03T17:26:37.503Z,93687.05
2018-06-03T17:29:05.173Z,93688.13
2018-06-03T17:31:32.846Z,93681.16
2018-06-03T17:34:00.498Z,93676.01
2018-06-03T17:36:28.160Z,93681.76
2018-06-03T17:38:55.813Z,93668.66
2018-06-03T17:41:23.488Z,93673.11
2018-06-03T17:43:51.183Z,93674.55
2018-06-03T17:46:18.878Z,93678.05
2018-06-03T17:48:46.535Z,93676.23
2018-06-03T17:51:14.179Z,93682.42
2018-06-03T17:53:42.086Z,93679.23
2018-06-03T17:56:09.801Z,93671.73
2018-06-03T17:58:37.517Z,93683.03
2018-06-03T18:01:05.232Z,93682.23
2018-06-03T18:03:32.918Z,93682.04
2018-06-03T18:06:00.564Z,93682.98
2018-06-03T18:08:28.249Z,93677.22
2018-06-03T18:10:55.923Z,93671.69
2018-06-03T18:13:23.718Z,93676.77
2018-06-03T18:15:51.441Z,93672.56
2018-06-03T18:18:19.140Z,93665.33
2018-06-03T18:20:46.871Z,93657.67
2018-06-03T18:23:14.536Z,93661.95
2018-06-03T18:25:42.198Z,93656.63
2018-06-03T18:28:09.843Z,93654.49
2018-06-03T18:30:37.549Z,93652.36
2018-06-03T18:33:05.230Z,93650.27
2018-06-03T18:35:32.883Z,93647.33
2018-06-03T18:38:00.659Z,93651.81
2018-06-03T18:40:28.343Z,93655.60
2018-06-03T18:42:56.051Z,93659.64
2018-06-03T18:45:23.935Z,93655.69
2018-06-03T18:47:51.598Z,93664.20
2018-06-03T18:50:19.271Z,93656.49
2018-06-03T18:52:46.988Z,93653.09
2018-06-03T18:55:14.664Z,93651.28
2018-06-03T18:57:42.369Z,93648.08
2018-06-03T19:00:10.063Z,93652.09
2018-06-03T19:02:37.701Z,93662.03
2018-06-03T19:05:05.542Z,93670.58
2018-06-03T19:07:33.226Z,93668.17
2018-06-03T19:10:00.888Z,93670.84
2018-06-03T19:12:28.674Z,93675.17
2018-06-03T19:14:56.330Z,93668.73
2018-06-03T19:17:24.031Z,93667.66
2018-06-03T19:19:51.695Z,93662.59
2018-06-03T19:22:19.379Z,93669.25
2018-06-03T19:24:47.033Z,93667.64
2018-06-03T19:27:14.748Z,93675.45
2018-06-03T19:29:42.386Z,93661.80
2018-06-03T19:32:10.078Z,93664.48
2018-06-03T19:34:37.707Z,93670.36
2018-06-03T19:37:05.365Z,93673.05
2018-06-03T19:39:33.056Z,93677.33
2018-06-03T19:42:00.705Z,93678.39
2018-06-03T19:44:28.400Z,93677.33
2018-06-03T19:46:56.069Z,93681.06
2018-06-03T19:49:23.752Z,93683.19
2018-06-03T19:51:51.460Z,93682.41
2018-06-03T19:54:19.090Z,93688.52
2018-06-03T19:56:46.768Z,93689.56
2018-06-03T19:59:14.389Z,93686.34
2018-06-03T20:01:42.066Z,93688.47
2018-06-03T20:04:09.897Z,93697.02
2018-06-03T20:06:37.591Z,93695.66
2018-06-03T20:09:06.798Z,93696.19
2018-06-03T20:11:34.520Z,93699.90
2018-06-03T20:14:02.188Z,93690.03
2018-06-03T20:16:30.291Z,93703.38
2018-06-03T20:18:58.108Z,93696.94
2018-06-03T20:21:25.824Z,93689.98
2018-06-03T20:23:53.547Z,93685.72
2018-06-03T20:26:21.215Z,93682.52
2018-06-03T20:28:48.880Z,93678.02
2018-06-03T20:31:16.563Z,93679.62
2018-06-03T20:33:44.260Z,93682.55
2018-06-03T20:36:11.983Z,93683.06
2018-06-03T20:38:39.635Z,93690.89
2018-06-03T20:41:07.308Z,93686.56
2018-06-03T20:43:34.935Z,93683.95
2018-06-03T20:46:02.587Z,93676.42
2018-06-03T20:48:30.231Z,93673.31
2018-06-03T20:50:57.887Z,93672.78
2018-06-03T20:53:25.523Z,93666.38
2018-06-03T20:55:53.174Z,93666.98
2018-06-03T20:58:20.790Z,93661.38
2018-06-03T21:00:48.485Z,93669.81
2018-06-03T21:03:16.127Z,93672.67
2018-06-03T21:05:43.763Z,93689.18
2018-06-03T21:08:11.406Z,93687.54
2018-06-03T21:10:39.027Z,93694.97
2018-06-03T21:13:06.647Z,93697.35
2018-06-03T21:15:34.307Z,93697.32
2018-06-03T21:18:01.956Z,93703.10
2018-06-03T21:20:29.602Z,93699.88
2018-06-03T21:22:57.272Z,93700.36
2018-06-03T21:25:24.991Z,93696.69
2018-06-03T21:27:52.639Z,93702.02
2018-06-03T21:30:20.270Z,93696.09
2018-06-03T21:32:47.911Z,93699.80
2018-06-03T21:35:15.532Z,93695.80
2018-06-03T21:37:43.148Z,93694.40
2018-06-03T21:40:10.851Z,93691.38
2018-06-03T21:42:38.486Z,93688.34
2018-06-03T21:45:06.168Z,93690.53
2018-06-03T21:47:33.789Z,93679.39
2018-06-03T21:50:01.508Z,93684.06
2018-06-03T21:52:29.299Z,93678.19
2018-06-03T21:54:56.923Z,93672.91
2018-06-03T21:57:24.618Z,93669.75
2018-06-03T21:59:52.236Z,93677.45
2018-06-03T22:02:19.902Z,93681.48
2018-06-03T22:04:47.559Z,93672.69
2018-06-03T22:07:15.199Z,93670.21
2018-06-03T22:09:42.905Z,93672.71
2018-06-03T22:12:10.547Z,93679.92
2018-06-03T22:14:38.156Z,93677.39
2018-06-03T22:17:05.830Z,93676.78
2018-06-03T22:19:33.585Z,93670.05
2018-06-03T22:22:01.238Z,93670.69
2018-06-03T22:24:28.934Z,93668.08
2018-06-03T22:26:56.657Z,93665.18
2018-06-03T22:29:24.311Z,93666.45
2018-06-03T22:31:51.979Z,93666.22
2018-06-03T22:34:19.631Z,93666.64
2018-06-03T22:36:47.242Z,93667.27
2018-06-03T22:39:14.888Z,93662.43
2018-06-03T22:41:42.557Z,93655.60
2018-06-03T22:44:10.231Z,93657.73
2018-06-03T22:46:37.915Z,93657.42
2018-06-03T22:49:05.731Z,93653.80
2018-06-03T22:51:33.393Z,93652.44
2018-06-03T22:54:01.042Z,93649.91
2018-06-03T22:56:34.321Z,93643.39
2018-06-03T22:59:01.993Z,93650.77
2018-06-03T23:01:29.692Z,93655.35
2018-06-03T23:03:57.354Z,93658.16
2018-06-03T23:06:25.075Z,93652.03
2018-06-03T23:08:52.763Z,93650.84
2018-06-03T23:11:20.471Z,93650.02
2018-06-03T23:13:48.172Z,93645.94
2018-06-03T23:16:15.890Z,93645.25
2018-06-03T23:18:43.532Z,93642.23
2018-06-03T23:21:11.198Z,93647.05
2018-06-03T23:23:38.858Z,93644.55
2018-06-03T23:26:06.554Z,93639.05
2018-06-03T23:28:34.263Z,93636.30
2018-06-03T23:31:01.976Z,93641.83
2018-06-03T23:33:29.659Z,93636.09
2018-06-03T23:35:57.329Z,93632.41
2018-06-03T23:38:25.074Z,93631.91
2018-06-03T23:40:52.793Z,93625.41
2018-06-03T23:43:20.458Z,93622.27
2018-06-03T23:45:48.184Z,93624.48
2018-06-03T23:48:15.895Z,93615.45
2018-06-03T23:50:43.552Z,93615.92
2018-06-03T23:53:11.264Z,93610.61
2018-06-03T23:55:38.916Z,93607.28
2018-06-03T23:58:06.599Z,93605.53
